createdAt,value
2023-03-31T00:01:53.114Z,2.00
2023-03-31T00:04:24.424Z,1.70
2023-03-31T00:06:54.647Z,1.47
2023-03-31T00:09:24.892Z,1.30
2023-03-31T00:11:52.459Z,1.73
2023-03-31T00:14:20.916Z,2.77
2023-03-31T00:16:47.666Z,2.00
2023-03-31T00:19:21.423Z,2.17
2023-03-31T00:21:49.160Z,2.30
2023-03-31T00:24:16.544Z,2.90
2023-03-31T00:26:43.850Z,2.63
2023-03-31T00:29:13.017Z,2.67
2023-03-31T00:31:40.131Z,2.90
2023-03-31T00:34:07.461Z,2.10
2023-03-31T00:36:36.978Z,3.30
2023-03-31T00:39:09.703Z,2.10
2023-03-31T00:41:39.415Z,2.23
2023-03-31T00:44:19.138Z,3.13
2023-03-31T00:46:55.721Z,3.17
2023-03-31T00:49:24.769Z,2.17
2023-03-31T00:51:52.566Z,2.57
2023-03-31T00:54:21.683Z,3.37
2023-03-31T00:56:49.622Z,1.97
2023-03-31T00:59:16.887Z,2.20
2023-03-31T01:01:45.988Z,2.50
2023-03-31T01:04:14.284Z,2.63
2023-03-31T01:06:50.435Z,3.43
2023-03-31T01:09:17.170Z,1.83
2023-03-31T01:11:46.480Z,2.20
2023-03-31T01:14:13.360Z,2.20
2023-03-31T01:16:40.137Z,3.17
2023-03-31T01:19:12.938Z,1.90
2023-03-31T01:21:53.924Z,2.93
2023-03-31T01:24:35.795Z,3.30
2023-03-31T01:27:46.591Z,2.80
2023-03-31T01:30:34.975Z,5.07
2023-03-31T01:33:14.586Z,4.93
2023-03-31T01:36:13.832Z,5.83
2023-03-31T01:39:07.338Z,4.87
2023-03-31T01:42:02.596Z,5.87
2023-03-31T01:44:44.583Z,10.57
2023-03-31T01:47:22.924Z,5.70
2023-03-31T01:50:03.436Z,5.27
2023-03-31T01:52:56.608Z,13.93
2023-03-31T01:55:25.509Z,21.37
2023-03-31T01:58:00.363Z,9.67
2023-03-31T02:00:34.007Z,19.87
2023-03-31T02:03:12.916Z,5.80
2023-03-31T02:05:50.466Z,7.97
2023-03-31T02:08:23.204Z,5.20
2023-03-31T02:10:52.194Z,3.23
2023-03-31T02:13:19.201Z,2.60
2023-03-31T02:15:48.414Z,2.93
2023-03-31T02:18:18.711Z,2.87
2023-03-31T02:20:48.460Z,2.20
2023-03-31T02:23:18.002Z,2.00
2023-03-31T02:25:51.561Z,2.90
2023-03-31T02:28:24.202Z,2.23
2023-03-31T02:31:15.534Z,2.50
2023-03-31T02:33:42.360Z,1.90
2023-03-31T02:36:09.657Z,2.70
2023-03-31T02:38:42.008Z,2.80
2023-03-31T02:41:09.213Z,4.17
2023-03-31T02:43:36.184Z,2.20
2023-03-31T02:46:03.144Z,2.87
2023-03-31T02:48:50.756Z,3.20
2023-03-31T02:51:42.441Z,5.90
2023-03-31T02:54:23.212Z,6.37
2023-03-31T02:57:26.349Z,5.20
2023-03-31T03:00:14.548Z,9.63
2023-03-31T03:03:21.385Z,5.50
2023-03-31T03:05:54.972Z,5.03
2023-03-31T03:09:13.057Z,2.83
2023-03-31T03:11:51.674Z,2.70
2023-03-31T03:14:30.722Z,4.60
2023-03-31T03:17:10.984Z,2.73
2023-03-31T03:19:37.856Z,3.37
2023-03-31T03:22:04.717Z,3.37
2023-03-31T03:24:34.503Z,5.77
2023-03-31T03:27:01.323Z,9.07
2023-03-31T03:29:28.555Z,5.67
2023-03-31T03:31:55.557Z,7.83
2023-03-31T03:34:22.288Z,7.33
2023-03-31T03:36:49.041Z,7.73
2023-03-31T03:39:15.961Z,5.20
2023-03-31T03:41:42.651Z,6.53
2023-03-31T03:44:09.364Z,7.60
2023-03-31T03:46:36.038Z,8.47
2023-03-31T03:49:02.814Z,4.57
2023-03-31T03:51:29.544Z,3.70
2023-03-31T03:53:56.222Z,4.53
2023-03-31T03:56:23.173Z,3.87
2023-03-31T03:58:51.022Z,4.10
2023-03-31T04:01:18.372Z,3.20
2023-03-31T04:03:45.528Z,4.03
2023-03-31T04:06:12.186Z,3.23
2023-03-31T04:08:38.986Z,4.23
2023-03-31T04:11:14.101Z,4.60
2023-03-31T04:13:41.971Z,4.70
2023-03-31T04:16:08.804Z,4.53
2023-03-31T04:18:37.345Z,2.90
2023-03-31T04:21:04.336Z,4.33
2023-03-31T04:23:46.975Z,4.80
2023-03-31T04:26:14.726Z,3.23
2023-03-31T04:28:43.030Z,3.93
2023-03-31T04:31:10.895Z,6.10
2023-03-31T04:33:40.524Z,3.63
2023-03-31T04:36:26.115Z,3.70
2023-03-31T04:38:55.039Z,4.83
2023-03-31T04:41:27.855Z,3.50
2023-03-31T04:43:55.815Z,3.80
2023-03-31T04:46:44.962Z,4.37
2023-03-31T04:49:11.793Z,3.13
2023-03-31T04:51:38.454Z,11.40
2023-03-31T04:54:07.772Z,10.93
2023-03-31T04:56:34.442Z,5.23
2023-03-31T04:59:01.252Z,4.10
2023-03-31T05:01:28.254Z,3.50
2023-03-31T05:03:55.345Z,3.77
2023-03-31T05:06:22.000Z,2.90
2023-03-31T05:08:48.683Z,4.13
2023-03-31T05:11:15.569Z,2.70
2023-03-31T05:13:42.420Z,3.40
2023-03-31T05:16:11.067Z,4.07
2023-03-31T05:18:38.363Z,4.60
2023-03-31T05:21:15.578Z,2.63
2023-03-31T05:23:42.864Z,3.63
2023-03-31T05:26:09.745Z,4.07
2023-03-31T05:28:37.180Z,4.73
2023-03-31T05:31:04.735Z,2.90
2023-03-31T05:33:31.774Z,3.50
2023-03-31T05:36:00.408Z,4.50
2023-03-31T05:38:31.766Z,2.50
2023-03-31T05:40:58.698Z,4.57
2023-03-31T05:43:25.718Z,3.43
2023-03-31T05:45:52.544Z,3.87
2023-03-31T05:48:19.534Z,2.97
2023-03-31T05:50:46.319Z,3.33
2023-03-31T05:53:12.983Z,4.20
2023-03-31T05:55:40.031Z,5.10
2023-03-31T05:58:06.988Z,2.60
2023-03-31T06:00:34.035Z,3.23
2023-03-31T06:03:00.879Z,3.53
2023-03-31T06:05:27.844Z,4.40
2023-03-31T06:07:55.650Z,3.93
2023-03-31T06:10:22.343Z,2.93
2023-03-31T06:12:49.073Z,3.40
2023-03-31T06:15:16.285Z,4.07
2023-03-31T06:17:43.103Z,5.20
2023-03-31T06:20:20.432Z,4.33
2023-03-31T06:22:51.256Z,3.10
2023-03-31T06:25:18.001Z,2.83
2023-03-31T06:27:44.715Z,4.70
2023-03-31T06:30:12.044Z,3.17
2023-03-31T06:32:38.912Z,2.93
2023-03-31T06:35:06.109Z,3.17
2023-03-31T06:37:32.870Z,3.40
2023-03-31T06:39:59.628Z,2.77
2023-03-31T06:42:26.334Z,2.90
2023-03-31T06:44:53.107Z,3.43
2023-03-31T06:47:19.876Z,4.07
2023-03-31T06:49:46.617Z,3.00
2023-03-31T06:52:13.361Z,2.33
2023-03-31T06:54:40.200Z,5.60
2023-03-31T06:57:06.911Z,3.60
2023-03-31T06:59:33.601Z,3.80
2023-03-31T07:02:00.838Z,4.90
2023-03-31T07:04:27.728Z,3.40
2023-03-31T07:06:54.435Z,3.23
2023-03-31T07:09:23.535Z,3.13
2023-03-31T07:11:50.822Z,4.47
2023-03-31T07:14:17.534Z,2.83
2023-03-31T07:16:44.449Z,4.97
2023-03-31T07:19:11.440Z,5.33
2023-03-31T07:21:38.161Z,3.03
2023-03-31T07:24:07.078Z,3.00
2023-03-31T07:26:33.876Z,2.63
2023-03-31T07:29:00.625Z,4.03
2023-03-31T07:31:27.442Z,2.40
2023-03-31T07:33:54.222Z,3.53
2023-03-31T07:36:22.021Z,2.87
2023-03-31T07:38:49.959Z,3.30
2023-03-31T07:41:19.343Z,3.07
2023-03-31T07:43:46.550Z,2.23
2023-03-31T07:46:25.120Z,2.93
2023-03-31T07:48:53.352Z,2.90
2023-03-31T07:51:22.641Z,3.00
2023-03-31T07:53:49.636Z,4.20
2023-03-31T07:56:17.091Z,4.37
2023-03-31T07:58:44.429Z,3.73
2023-03-31T08:01:17.561Z,4.13
2023-03-31T08:03:46.449Z,2.60
2023-03-31T08:06:18.876Z,3.53
2023-03-31T08:08:45.681Z,4.30
2023-03-31T08:11:12.370Z,2.30
2023-03-31T08:13:39.105Z,2.70
2023-03-31T08:16:06.457Z,3.10
2023-03-31T08:18:33.446Z,2.97
2023-03-31T08:21:00.139Z,3.50
2023-03-31T08:23:27.023Z,2.57
2023-03-31T08:25:53.736Z,3.37
2023-03-31T08:28:20.498Z,3.57
2023-03-31T08:30:47.262Z,2.70
2023-03-31T08:33:14.304Z,2.70
2023-03-31T08:35:41.140Z,5.40
2023-03-31T08:38:07.859Z,3.60
2023-03-31T08:40:34.572Z,2.87
2023-03-31T08:43:19.270Z,3.53
2023-03-31T08:45:47.369Z,4.03
2023-03-31T08:48:38.953Z,2.73
2023-03-31T08:51:14.700Z,2.70
2023-03-31T08:53:44.525Z,3.90
2023-03-31T08:56:17.900Z,3.17
2023-03-31T08:58:47.147Z,3.30
2023-03-31T09:01:31.302Z,2.90
2023-03-31T09:04:27.332Z,2.73
2023-03-31T09:07:10.343Z,3.40
2023-03-31T09:09:38.821Z,3.60
2023-03-31T09:12:10.798Z,3.57
2023-03-31T09:15:09.104Z,3.30
2023-03-31T09:17:45.259Z,3.50
2023-03-31T09:20:31.896Z,4.07
2023-03-31T09:23:19.098Z,3.37
2023-03-31T09:25:46.713Z,3.50
2023-03-31T09:28:20.466Z,3.30
2023-03-31T09:30:52.283Z,3.13
2023-03-31T09:33:28.470Z,3.37
2023-03-31T09:35:55.317Z,3.53
2023-03-31T09:38:22.126Z,4.40
2023-03-31T09:40:49.065Z,5.80
2023-03-31T09:43:23.031Z,3.73
2023-03-31T09:46:07.887Z,4.33
2023-03-31T09:48:36.636Z,4.53
2023-03-31T09:51:18.489Z,3.33
2023-03-31T09:54:00.164Z,3.60
2023-03-31T09:56:54.046Z,3.43
2023-03-31T09:59:34.789Z,2.70
2023-03-31T10:02:23.031Z,3.23
2023-03-31T10:04:50.172Z,3.30
2023-03-31T10:07:21.801Z,3.40
2023-03-31T10:09:48.946Z,3.17
2023-03-31T10:12:26.744Z,4.47
2023-03-31T10:14:55.141Z,3.07
2023-03-31T10:17:23.807Z,3.50
2023-03-31T10:19:54.852Z,3.97
2023-03-31T10:22:21.632Z,2.90
2023-03-31T10:24:50.084Z,3.40
2023-03-31T10:27:28.651Z,3.00
2023-03-31T10:30:00.106Z,3.17
2023-03-31T10:32:29.062Z,4.17
2023-03-31T10:34:57.365Z,3.10
2023-03-31T10:37:26.518Z,4.27
2023-03-31T10:40:02.351Z,2.97
2023-03-31T10:42:29.113Z,3.43
2023-03-31T10:45:36.548Z,3.17
2023-03-31T10:48:04.974Z,2.77
2023-03-31T10:50:36.618Z,3.23
2023-03-31T10:53:11.356Z,3.10
2023-03-31T10:55:44.725Z,3.63
2023-03-31T10:58:33.259Z,3.30
2023-03-31T11:01:29.938Z,2.87
2023-03-31T11:04:09.747Z,3.47
2023-03-31T11:06:49.896Z,3.07
2023-03-31T11:09:46.475Z,2.70
2023-03-31T11:12:21.894Z,3.40
2023-03-31T11:15:16.581Z,4.57
2023-03-31T11:17:55.854Z,3.73
2023-03-31T11:20:35.506Z,4.47
2023-03-31T11:23:24.038Z,4.43
2023-03-31T11:26:06.621Z,4.03
2023-03-31T11:28:58.296Z,3.87
2023-03-31T11:31:37.408Z,3.30
2023-03-31T11:34:32.498Z,3.03
2023-03-31T11:37:13.364Z,3.93
2023-03-31T11:39:54.644Z,4.13
2023-03-31T11:42:32.123Z,4.47
2023-03-31T11:45:04.332Z,4.90
2023-03-31T11:47:35.101Z,4.83
2023-03-31T11:50:07.515Z,3.50
2023-03-31T11:52:35.611Z,3.17
2023-03-31T11:55:15.699Z,3.13
2023-03-31T11:57:46.973Z,2.93
2023-03-31T12:00:20.898Z,2.73
2023-03-31T12:02:54.945Z,4.10
2023-03-31T12:05:23.041Z,3.30
2023-03-31T12:07:58.962Z,2.80
2023-03-31T12:10:36.010Z,3.30
2023-03-31T12:13:26.444Z,3.17
2023-03-31T12:16:02.972Z,2.77
2023-03-31T12:18:33.927Z,2.30
2023-03-31T12:21:03.500Z,2.73
2023-03-31T12:23:34.487Z,2.40
2023-03-31T12:26:36.415Z,2.30
2023-03-31T12:29:31.620Z,2.97
2023-03-31T12:32:03.948Z,3.10
2023-03-31T12:34:31.480Z,3.23
2023-03-31T12:37:32.269Z,2.43
2023-03-31T12:40:16.646Z,2.80
2023-03-31T12:42:59.593Z,2.43
2023-03-31T12:45:31.478Z,3.10
2023-03-31T12:47:58.216Z,2.10
2023-03-31T12:50:54.250Z,2.47
2023-03-31T12:53:44.886Z,4.27
2023-03-31T12:56:11.651Z,2.60
2023-03-31T12:58:41.692Z,3.37
2023-03-31T13:01:16.349Z,3.37
2023-03-31T13:04:21.626Z,5.10
2023-03-31T13:06:59.822Z,6.70
2023-03-31T13:09:47.070Z,5.23
2023-03-31T13:12:16.751Z,4.30
2023-03-31T13:14:45.633Z,3.50
2023-03-31T13:17:25.172Z,3.80
2023-03-31T13:19:52.457Z,2.97
2023-03-31T13:22:36.590Z,3.80
2023-03-31T13:25:31.447Z,3.33
2023-03-31T13:28:04.612Z,2.97
2023-03-31T13:30:37.189Z,2.47
2023-03-31T13:33:22.049Z,3.40
2023-03-31T13:35:57.697Z,3.43
2023-03-31T13:38:34.754Z,3.30
2023-03-31T13:41:13.643Z,2.70
2023-03-31T13:43:43.911Z,2.37
2023-03-31T13:46:32.329Z,3.57
2023-03-31T13:49:20.716Z,3.30
2023-03-31T13:51:58.419Z,2.53
2023-03-31T13:54:49.341Z,3.73
2023-03-31T13:57:36.032Z,2.90
2023-03-31T14:00:21.800Z,2.80
2023-03-31T14:03:12.894Z,2.50
2023-03-31T14:05:43.557Z,3.70
2023-03-31T14:08:12.865Z,2.97
2023-03-31T14:10:41.397Z,2.90
2023-03-31T14:13:12.291Z,2.83
2023-03-31T14:15:51.429Z,5.63
2023-03-31T14:18:38.702Z,3.43
2023-03-31T14:21:11.677Z,13.27
2023-03-31T14:23:41.387Z,3.10
2023-03-31T14:26:27.140Z,2.57
2023-03-31T14:29:19.701Z,2.90
2023-03-31T14:32:24.503Z,2.67
2023-03-31T14:35:03.939Z,3.30
2023-03-31T14:37:31.075Z,2.90
2023-03-31T14:39:59.089Z,3.03
2023-03-31T14:42:33.046Z,4.07
2023-03-31T14:45:04.870Z,3.73
2023-03-31T14:47:32.079Z,4.53
2023-03-31T14:50:06.378Z,6.40
2023-03-31T14:52:35.883Z,2.77
2023-03-31T14:55:02.623Z,2.60
2023-03-31T14:57:33.311Z,3.77
2023-03-31T15:00:02.470Z,3.03
2023-03-31T15:02:37.551Z,1.77
2023-03-31T15:05:07.829Z,2.27
2023-03-31T15:07:34.959Z,1.97
2023-03-31T15:10:02.622Z,3.47
2023-03-31T15:12:29.753Z,2.27
2023-03-31T15:15:00.406Z,1.93
2023-03-31T15:17:35.180Z,1.30
2023-03-31T15:20:04.945Z,2.17
2023-03-31T15:22:31.762Z,1.30
2023-03-31T15:24:58.537Z,1.20
2023-03-31T15:27:38.996Z,2.17
2023-03-31T15:30:07.816Z,3.57
2023-03-31T15:32:39.442Z,2.40
2023-03-31T15:35:21.169Z,2.10
2023-03-31T15:37:51.063Z,1.50
2023-03-31T15:40:21.912Z,1.27
2023-03-31T15:43:01.899Z,2.13
2023-03-31T15:45:55.057Z,1.73
2023-03-31T15:48:33.986Z,1.33
2023-03-31T15:51:22.893Z,2.10
2023-03-31T15:53:52.675Z,1.47
2023-03-31T15:56:27.300Z,3.97
2023-03-31T15:59:05.451Z,2.23
2023-03-31T16:02:00.001Z,2.83
2023-03-31T16:04:32.446Z,1.50
2023-03-31T16:07:07.661Z,15.87
2023-03-31T16:09:51.733Z,2.47
2023-03-31T16:12:28.924Z,3.63
2023-03-31T16:15:14.344Z,1.33
2023-03-31T16:17:57.444Z,1.67
2023-03-31T16:20:28.556Z,1.37
2023-03-31T16:22:58.923Z,1.37
2023-03-31T16:25:27.857Z,1.93
2023-03-31T16:27:57.148Z,2.97
2023-03-31T16:30:41.611Z,1.60
2023-03-31T16:33:14.401Z,1.13
2023-03-31T16:35:49.125Z,1.07
2023-03-31T16:38:16.734Z,1.97
2023-03-31T16:40:48.093Z,2.10
2023-03-31T16:43:23.012Z,1.33
2023-03-31T16:45:51.727Z,1.00
2023-03-31T16:48:19.896Z,1.50
2023-03-31T16:50:48.266Z,1.27
2023-03-31T16:53:16.760Z,1.40
2023-03-31T16:55:43.575Z,2.20
2023-03-31T16:58:12.052Z,8.20
2023-03-31T17:00:40.704Z,1.93
2023-03-31T17:03:08.926Z,3.40
2023-03-31T17:05:43.639Z,3.10
2023-03-31T17:08:11.439Z,2.90
2023-03-31T17:10:39.338Z,1.47
2023-03-31T17:13:06.838Z,1.27
2023-03-31T17:15:36.418Z,1.37
2023-03-31T17:18:04.710Z,1.40
2023-03-31T17:20:32.877Z,1.90
2023-03-31T17:22:59.936Z,1.90
2023-03-31T17:25:26.890Z,1.17
2023-03-31T17:27:55.879Z,1.90
2023-03-31T17:30:23.566Z,1.50
2023-03-31T17:32:51.561Z,1.57
2023-03-31T17:35:21.705Z,1.30
2023-03-31T17:37:50.696Z,1.60
2023-03-31T17:40:17.507Z,1.57
2023-03-31T17:42:44.803Z,1.30
2023-03-31T17:45:12.833Z,1.20
2023-03-31T17:47:39.942Z,3.00
2023-03-31T17:50:10.258Z,1.97
2023-03-31T17:52:37.372Z,2.53
2023-03-31T17:55:04.703Z,1.87
2023-03-31T17:57:32.187Z,1.77
2023-03-31T17:59:59.403Z,1.97
2023-03-31T18:02:26.129Z,5.43
2023-03-31T18:04:53.551Z,2.17
2023-03-31T18:07:23.220Z,1.50
2023-03-31T18:09:49.968Z,3.10
2023-03-31T18:12:16.792Z,1.70
2023-03-31T18:14:43.498Z,1.23
2023-03-31T18:17:14.835Z,1.40
2023-03-31T18:19:42.921Z,1.57
2023-03-31T18:22:09.964Z,1.80
2023-03-31T18:24:38.482Z,1.37
2023-03-31T18:27:05.771Z,4.13
2023-03-31T18:29:32.665Z,2.10
2023-03-31T18:31:59.532Z,2.70
2023-03-31T18:34:26.940Z,2.53
2023-03-31T18:36:54.100Z,1.10
2023-03-31T18:39:21.536Z,2.43
2023-03-31T18:41:48.991Z,1.83
2023-03-31T18:44:18.896Z,1.43
2023-03-31T18:46:46.234Z,1.70
2023-03-31T18:49:14.597Z,1.27
2023-03-31T18:51:41.352Z,1.40
2023-03-31T18:54:08.222Z,2.03
2023-03-31T18:56:34.906Z,1.63
2023-03-31T18:59:04.281Z,1.73
2023-03-31T19:01:32.765Z,2.03
2023-03-31T19:03:59.591Z,1.57
2023-03-31T19:06:26.869Z,2.43
2023-03-31T19:08:56.151Z,1.97
2023-03-31T19:11:24.001Z,1.50
2023-03-31T19:13:50.846Z,1.50
2023-03-31T19:16:18.713Z,1.60
2023-03-31T19:18:45.544Z,2.17
2023-03-31T19:21:12.341Z,1.37
2023-03-31T19:23:39.258Z,1.70
2023-03-31T19:26:05.960Z,2.30
2023-03-31T19:28:32.754Z,2.73
2023-03-31T19:30:59.820Z,1.53
2023-03-31T19:33:27.127Z,1.90
2023-03-31T19:35:54.265Z,2.43
2023-03-31T19:38:22.037Z,1.53
2023-03-31T19:40:49.154Z,2.50
2023-03-31T19:43:20.811Z,2.80
2023-03-31T19:45:50.608Z,7.10
2023-03-31T19:48:17.428Z,8.00
2023-03-31T19:50:54.092Z,6.97
2023-03-31T19:53:22.314Z,7.17
2023-03-31T19:55:57.446Z,6.97
2023-03-31T19:58:24.194Z,8.57
2023-03-31T20:00:52.838Z,6.27
2023-03-31T20:03:20.700Z,6.50
2023-03-31T20:05:48.069Z,8.67
2023-03-31T20:08:14.991Z,6.37
2023-03-31T20:10:42.546Z,6.77
2023-03-31T20:13:09.996Z,6.00
2023-03-31T20:15:37.866Z,5.90
2023-03-31T20:18:08.569Z,23.80
2023-03-31T20:20:35.458Z,10.70
2023-03-31T20:23:03.618Z,7.37
2023-03-31T20:25:30.736Z,6.13
2023-03-31T20:27:57.621Z,7.20
2023-03-31T20:30:24.464Z,13.43
2023-03-31T20:32:51.234Z,10.03
2023-03-31T20:35:18.310Z,8.83
2023-03-31T20:37:44.980Z,6.40
2023-03-31T20:40:12.226Z,5.33
2023-03-31T20:42:38.919Z,5.00
2023-03-31T20:45:06.747Z,3.73
2023-03-31T20:47:35.387Z,5.10
2023-03-31T20:50:02.706Z,4.30
2023-03-31T20:52:29.450Z,7.50
2023-03-31T20:54:56.434Z,4.37
2023-03-31T20:57:24.454Z,4.40
2023-03-31T20:59:51.740Z,5.53
2023-03-31T21:02:18.915Z,3.50
2023-03-31T21:04:46.761Z,3.80
2023-03-31T21:07:14.412Z,3.77
2023-03-31T21:09:41.309Z,4.80
2023-03-31T21:12:08.045Z,3.83
2023-03-31T21:14:35.026Z,3.33
2023-03-31T21:17:01.963Z,2.97
2023-03-31T21:19:28.891Z,2.53
2023-03-31T21:21:55.570Z,2.87
2023-03-31T21:24:22.599Z,3.00
2023-03-31T21:26:49.334Z,2.53
2023-03-31T21:29:16.144Z,2.13
2023-03-31T21:31:45.026Z,1.63
2023-03-31T21:34:11.908Z,1.57
2023-03-31T21:36:38.722Z,1.17
2023-03-31T21:39:05.917Z,1.77
2023-03-31T21:41:32.661Z,1.33
2023-03-31T21:44:01.763Z,1.63
2023-03-31T21:46:31.175Z,1.10
2023-03-31T21:48:58.163Z,1.97
2023-03-31T21:51:25.815Z,2.73
2023-03-31T21:53:55.550Z,1.20
2023-03-31T21:56:24.465Z,1.00
2023-03-31T21:58:51.225Z,2.67
2023-03-31T22:01:18.775Z,2.40
2023-03-31T22:03:46.008Z,0.70
2023-03-31T22:06:12.851Z,0.97
2023-03-31T22:08:40.020Z,0.60
2023-03-31T22:11:08.361Z,0.70
2023-03-31T22:13:36.029Z,0.20
2023-03-31T22:16:03.408Z,0.50
2023-03-31T22:18:30.709Z,0.83
2023-03-31T22:20:58.100Z,0.40
2023-03-31T22:23:24.791Z,1.17
2023-03-31T22:25:51.540Z,0.60
2023-03-31T22:28:18.418Z,0.70
2023-03-31T22:30:45.161Z,1.00
2023-03-31T22:33:11.953Z,0.93
2023-03-31T22:35:38.774Z,0.90
2023-03-31T22:38:06.516Z,0.77
2023-03-31T22:40:36.342Z,0.33
2023-03-31T22:43:03.233Z,0.90
2023-03-31T22:45:30.156Z,0.90
2023-03-31T22:47:57.111Z,0.70
2023-03-31T22:50:27.482Z,0.47
2023-03-31T22:52:54.323Z,1.50
2023-03-31T22:55:21.109Z,0.83
2023-03-31T22:57:49.866Z,1.47
2023-03-31T23:00:17.200Z,0.63
2023-03-31T23:02:43.961Z,0.80
2023-03-31T23:05:10.736Z,1.57
2023-03-31T23:07:38.126Z,1.43
2023-03-31T23:10:05.480Z,1.27
2023-03-31T23:12:32.150Z,0.97
2023-03-31T23:14:58.812Z,1.70
2023-03-31T23:17:25.510Z,2.33
2023-03-31T23:19:52.741Z,1.87
2023-03-31T23:22:19.455Z,0.90
2023-03-31T23:24:50.138Z,0.80
2023-03-31T23:27:16.845Z,2.00
2023-03-31T23:29:44.149Z,1.27
2023-03-31T23:32:11.132Z,0.97
2023-03-31T23:34:42.037Z,1.27
2023-03-31T23:37:12.827Z,1.53
2023-03-31T23:39:39.966Z,2.17
2023-03-31T23:42:07.422Z,1.73
2023-03-31T23:44:34.554Z,0.70
2023-03-31T23:47:02.236Z,0.83
2023-03-31T23:49:28.872Z,0.80
2023-03-31T23:51:55.610Z,0.53
2023-03-31T23:54:22.369Z,1.73
2023-03-31T23:56:49.573Z,1.20
2023-03-31T23:59:16.746Z,3.20
